Port Lincoln, Australia
Current Conditions -  °F | °C
As of 9:00 PM on Monday 20 Oct 2014 (Local Time) from YWHA Reporting Station
Clear Clear  
Wind Chill: 70°   Ceiling: Unl
Heat Index: 70°   Visibility: 6mi
Dew Point: 50°   Wind: 5mph
Humidity: 49%   Direction: 190°S
Pressure: 30.06"   Gusts: NA
Location:  34.72°S, 135.86°E
Report Text: YWHA 201100Z AUTO 19004KT 9999 // NCD 21/10 Q1018
Loading
Personal Weather Stations






























Interactive Weather Map
Tropical Storm Tracking
New forecast layout! Learn more

10-Day Weather Forecast

Advertisements
Track Severe Weather on mobile